sensor_id;sensor_type;location;lat;lon;timestamp;temperature;humidity
18177;DHT22;9213;50.858;3.964;2023-05-10T00:13:20;17.20;64.40
18177;DHT22;9213;50.858;3.964;2023-05-10T00:15:47;17.10;64.40
18177;DHT22;9213;50.858;3.964;2023-05-10T00:18:14;17.10;64.60
18177;DHT22;9213;50.858;3.964;2023-05-10T00:20:41;17.10;64.50
18177;DHT22;9213;50.858;3.964;2023-05-10T00:23:08;17.10;64.60
18177;DHT22;9213;50.858;3.964;2023-05-10T00:25:35;17.10;64.60
18177;DHT22;9213;50.858;3.964;2023-05-10T00:28:02;17.10;64.60
18177;DHT22;9213;50.858;3.964;2023-05-10T00:30:30;17.10;64.50
18177;DHT22;9213;50.858;3.964;2023-05-10T00:32:57;17.10;64.60
18177;DHT22;9213;50.858;3.964;2023-05-10T00:35:24;17.10;64.50
18177;DHT22;9213;50.858;3.964;2023-05-10T00:37:51;17.10;64.50
18177;DHT22;9213;50.858;3.964;2023-05-10T00:40:18;17.10;64.50
18177;DHT22;9213;50.858;3.964;2023-05-10T00:42:45;17.10;64.50
18177;DHT22;9213;50.858;3.964;2023-05-10T00:45:12;17.10;64.60
18177;DHT22;9213;50.858;3.964;2023-05-10T00:47:40;17.10;64.70
18177;DHT22;9213;50.858;3.964;2023-05-10T00:50:08;17.10;64.80
18177;DHT22;9213;50.858;3.964;2023-05-10T00:52:36;17.10;64.80
18177;DHT22;9213;50.858;3.964;2023-05-10T00:55:03;17.10;64.70
18177;DHT22;9213;50.858;3.964;2023-05-10T00:57:31;17.10;64.70
18177;DHT22;9213;50.858;3.964;2023-05-10T00:59:59;17.20;64.80
18177;DHT22;9213;50.858;3.964;2023-05-10T01:02:26;17.20;64.80
18177;DHT22;9213;50.858;3.964;2023-05-10T01:04:55;17.20;64.60
18177;DHT22;9213;50.858;3.964;2023-05-10T01:07:21;17.20;64.60
18177;DHT22;9213;50.858;3.964;2023-05-10T01:09:48;17.20;64.60
18177;DHT22;9213;50.858;3.964;2023-05-10T01:12:15;17.20;64.60
18177;DHT22;9213;50.858;3.964;2023-05-10T01:14:43;17.10;64.70
18177;DHT22;9213;50.858;3.964;2023-05-10T01:17:10;17.10;64.80
18177;DHT22;9213;50.858;3.964;2023-05-10T01:19:38;17.10;64.90
18177;DHT22;9213;50.858;3.964;2023-05-10T01:22:19;17.10;64.90
18177;DHT22;9213;50.858;3.964;2023-05-10T01:28:21;17.20;64.90
18177;DHT22;9213;50.858;3.964;2023-05-10T01:31:15;17.20;64.80
18177;DHT22;9213;50.858;3.964;2023-05-10T01:33:47;17.10;64.70
18177;DHT22;9213;50.858;3.964;2023-05-10T01:36:22;17.10;64.70
18177;DHT22;9213;50.858;3.964;2023-05-10T01:38:55;17.10;64.80
18177;DHT22;9213;50.858;3.964;2023-05-10T01:41:30;17.10;64.80
18177;DHT22;9213;50.858;3.964;2023-05-10T01:44:06;17.10;64.90
18177;DHT22;9213;50.858;3.964;2023-05-10T01:46:37;17.10;64.90
18177;DHT22;9213;50.858;3.964;2023-05-10T01:49:09;17.10;64.80
18177;DHT22;9213;50.858;3.964;2023-05-10T01:51:39;17.10;64.80
18177;DHT22;9213;50.858;3.964;2023-05-10T01:54:08;17.10;64.90
18177;DHT22;9213;50.858;3.964;2023-05-10T01:56:38;17.10;64.80
18177;DHT22;9213;50.858;3.964;2023-05-10T01:59:11;17.10;64.80
18177;DHT22;9213;50.858;3.964;2023-05-10T02:01:40;17.10;64.70
18177;DHT22;9213;50.858;3.964;2023-05-10T02:04:09;17.10;64.70
18177;DHT22;9213;50.858;3.964;2023-05-10T02:06:39;17.10;64.80
18177;DHT22;9213;50.858;3.964;2023-05-10T02:09:07;17.10;64.80
18177;DHT22;9213;50.858;3.964;2023-05-10T02:11:37;17.10;64.70
18177;DHT22;9213;50.858;3.964;2023-05-10T02:14:06;17.10;64.70
18177;DHT22;9213;50.858;3.964;2023-05-10T02:16:35;17.10;64.60
18177;DHT22;9213;50.858;3.964;2023-05-10T02:19:03;17.10;64.60
18177;DHT22;9213;50.858;3.964;2023-05-10T02:21:33;17.10;64.60
18177;DHT22;9213;50.858;3.964;2023-05-10T02:24:03;17.10;64.70
18177;DHT22;9213;50.858;3.964;2023-05-10T02:26:31;17.10;64.60
18177;DHT22;9213;50.858;3.964;2023-05-10T02:29:01;17.10;64.50
18177;DHT22;9213;50.858;3.964;2023-05-10T02:31:30;17.10;64.50
18177;DHT22;9213;50.858;3.964;2023-05-10T02:33:59;17.10;64.40
18177;DHT22;9213;50.858;3.964;2023-05-10T02:36:27;17.10;64.50
18177;DHT22;9213;50.858;3.964;2023-05-10T02:38:56;17.00;64.40
18177;DHT22;9213;50.858;3.964;2023-05-10T02:41:25;17.10;64.60
18177;DHT22;9213;50.858;3.964;2023-05-10T02:43:55;17.10;64.50
18177;DHT22;9213;50.858;3.964;2023-05-10T02:46:23;17.10;64.50
18177;DHT22;9213;50.858;3.964;2023-05-10T02:48:50;17.10;64.40
18177;DHT22;9213;50.858;3.964;2023-05-10T02:51:18;17.00;64.30
18177;DHT22;9213;50.858;3.964;2023-05-10T02:53:47;17.10;64.50
18177;DHT22;9213;50.858;3.964;2023-05-10T02:56:25;17.00;64.40
18177;DHT22;9213;50.858;3.964;2023-05-10T02:58:52;17.10;64.50
18177;DHT22;9213;50.858;3.964;2023-05-10T03:01:19;17.10;64.30
18177;DHT22;9213;50.858;3.964;2023-05-10T03:03:46;17.10;64.40
18177;DHT22;9213;50.858;3.964;2023-05-10T03:06:13;17.10;64.30
18177;DHT22;9213;50.858;3.964;2023-05-10T03:08:40;17.10;64.30
18177;DHT22;9213;50.858;3.964;2023-05-10T03:11:23;17.10;64.30
18177;DHT22;9213;50.858;3.964;2023-05-10T03:14:00;17.10;64.40
18177;DHT22;9213;50.858;3.964;2023-05-10T03:16:38;17.10;64.30
18177;DHT22;9213;50.858;3.964;2023-05-10T03:19:10;17.10;64.30
18177;DHT22;9213;50.858;3.964;2023-05-10T03:21:42;17.10;64.20
18177;DHT22;9213;50.858;3.964;2023-05-10T03:24:11;17.10;64.30
18177;DHT22;9213;50.858;3.964;2023-05-10T03:26:43;17.10;64.30
18177;DHT22;9213;50.858;3.964;2023-05-10T03:29:12;17.10;64.30
18177;DHT22;9213;50.858;3.964;2023-05-10T03:31:39;17.10;64.30
18177;DHT22;9213;50.858;3.964;2023-05-10T03:34:06;17.10;64.40
18177;DHT22;9213;50.858;3.964;2023-05-10T03:36:33;17.10;64.40
18177;DHT22;9213;50.858;3.964;2023-05-10T03:39:00;17.10;64.30
18177;DHT22;9213;50.858;3.964;2023-05-10T03:41:27;17.10;64.30
18177;DHT22;9213;50.858;3.964;2023-05-10T03:43:56;17.10;64.40
18177;DHT22;9213;50.858;3.964;2023-05-10T03:46:22;17.10;64.30
18177;DHT22;9213;50.858;3.964;2023-05-10T03:48:49;17.10;64.30
18177;DHT22;9213;50.858;3.964;2023-05-10T03:51:16;17.10;64.30
18177;DHT22;9213;50.858;3.964;2023-05-10T03:53:43;17.10;64.40
18177;DHT22;9213;50.858;3.964;2023-05-10T03:56:10;17.00;64.40
18177;DHT22;9213;50.858;3.964;2023-05-10T03:58:37;17.00;64.50
18177;DHT22;9213;50.858;3.964;2023-05-10T04:01:05;17.00;64.50
18177;DHT22;9213;50.858;3.964;2023-05-10T04:03:32;16.90;64.60
18177;DHT22;9213;50.858;3.964;2023-05-10T04:06:01;16.90;64.70
18177;DHT22;9213;50.858;3.964;2023-05-10T04:08:28;16.90;64.60
18177;DHT22;9213;50.858;3.964;2023-05-10T04:11:04;16.90;64.70
18177;DHT22;9213;50.858;3.964;2023-05-10T04:13:32;16.80;64.70
18177;DHT22;9213;50.858;3.964;2023-05-10T04:15:59;16.80;64.60
18177;DHT22;9213;50.858;3.964;2023-05-10T04:18:27;16.80;64.80
18177;DHT22;9213;50.858;3.964;2023-05-10T04:20:54;16.80;64.80
18177;DHT22;9213;50.858;3.964;2023-05-10T04:23:21;16.70;64.80
18177;DHT22;9213;50.858;3.964;2023-05-10T04:25:48;16.70;64.90
18177;DHT22;9213;50.858;3.964;2023-05-10T04:28:15;16.70;64.90
18177;DHT22;9213;50.858;3.964;2023-05-10T04:30:42;16.70;64.90
18177;DHT22;9213;50.858;3.964;2023-05-10T04:33:09;16.60;64.90
18177;DHT22;9213;50.858;3.964;2023-05-10T04:35:37;16.60;64.90
18177;DHT22;9213;50.858;3.964;2023-05-10T04:38:05;16.60;65.10
18177;DHT22;9213;50.858;3.964;2023-05-10T04:40:32;16.60;65.00
18177;DHT22;9213;50.858;3.964;2023-05-10T04:42:59;16.50;65.10
18177;DHT22;9213;50.858;3.964;2023-05-10T04:45:26;16.50;65.20
18177;DHT22;9213;50.858;3.964;2023-05-10T04:47:53;16.50;65.20
18177;DHT22;9213;50.858;3.964;2023-05-10T04:50:20;16.50;65.20
18177;DHT22;9213;50.858;3.964;2023-05-10T04:52:48;16.50;65.30
18177;DHT22;9213;50.858;3.964;2023-05-10T04:55:15;16.50;65.40
18177;DHT22;9213;50.858;3.964;2023-05-10T04:57:42;16.50;65.30
18177;DHT22;9213;50.858;3.964;2023-05-10T05:00:11;16.50;65.30
18177;DHT22;9213;50.858;3.964;2023-05-10T05:02:38;16.50;65.40
18177;DHT22;9213;50.858;3.964;2023-05-10T05:05:06;16.50;65.50
18177;DHT22;9213;50.858;3.964;2023-05-10T05:07:33;16.50;65.50
18177;DHT22;9213;50.858;3.964;2023-05-10T05:10:01;16.50;65.50
18177;DHT22;9213;50.858;3.964;2023-05-10T05:12:28;16.50;65.60
18177;DHT22;9213;50.858;3.964;2023-05-10T05:14:56;16.50;65.40
18177;DHT22;9213;50.858;3.964;2023-05-10T05:17:22;16.50;65.50
18177;DHT22;9213;50.858;3.964;2023-05-10T05:19:49;16.50;65.60
18177;DHT22;9213;50.858;3.964;2023-05-10T05:22:16;16.50;65.60
18177;DHT22;9213;50.858;3.964;2023-05-10T05:24:44;16.50;65.50
18177;DHT22;9213;50.858;3.964;2023-05-10T05:27:13;16.60;65.40
18177;DHT22;9213;50.858;3.964;2023-05-10T05:29:40;16.70;65.50
18177;DHT22;9213;50.858;3.964;2023-05-10T05:32:07;16.60;65.30
18177;DHT22;9213;50.858;3.964;2023-05-10T05:34:34;16.70;65.50
18177;DHT22;9213;50.858;3.964;2023-05-10T05:37:00;16.70;65.40
18177;DHT22;9213;50.858;3.964;2023-05-10T05:39:27;16.70;66.20
18177;DHT22;9213;50.858;3.964;2023-05-10T05:41:54;16.80;65.30
18177;DHT22;9213;50.858;3.964;2023-05-10T05:44:23;16.80;65.20
18177;DHT22;9213;50.858;3.964;2023-05-10T05:46:50;16.80;65.20
18177;DHT22;9213;50.858;3.964;2023-05-10T05:49:16;16.80;65.10
18177;DHT22;9213;50.858;3.964;2023-05-10T05:51:43;16.90;65.00
18177;DHT22;9213;50.858;3.964;2023-05-10T05:54:10;16.90;65.00
18177;DHT22;9213;50.858;3.964;2023-05-10T05:56:37;16.90;64.90
18177;DHT22;9213;50.858;3.964;2023-05-10T05:59:04;16.90;64.90
18177;DHT22;9213;50.858;3.964;2023-05-10T06:01:33;16.90;64.80
18177;DHT22;9213;50.858;3.964;2023-05-10T06:04:00;16.90;64.80
18177;DHT22;9213;50.858;3.964;2023-05-10T06:06:27;16.90;64.70
18177;DHT22;9213;50.858;3.964;2023-05-10T06:08:53;16.90;64.50
18177;DHT22;9213;50.858;3.964;2023-05-10T06:11:20;16.90;64.50
18177;DHT22;9213;50.858;3.964;2023-05-10T06:13:48;16.90;65.30
18177;DHT22;9213;50.858;3.964;2023-05-10T06:16:15;17.00;64.50
18177;DHT22;9213;50.858;3.964;2023-05-10T06:18:44;17.00;64.40
18177;DHT22;9213;50.858;3.964;2023-05-10T06:21:11;17.00;64.30
18177;DHT22;9213;50.858;3.964;2023-05-10T06:23:38;16.90;64.10
18177;DHT22;9213;50.858;3.964;2023-05-10T06:26:05;16.90;64.10
18177;DHT22;9213;50.858;3.964;2023-05-10T06:28:32;16.90;64.10
18177;DHT22;9213;50.858;3.964;2023-05-10T06:30:59;16.90;64.10
18177;DHT22;9213;50.858;3.964;2023-05-10T06:33:26;17.00;64.10
18177;DHT22;9213;50.858;3.964;2023-05-10T06:35:54;17.00;64.10
18177;DHT22;9213;50.858;3.964;2023-05-10T06:38:21;17.00;64.00
18177;DHT22;9213;50.858;3.964;2023-05-10T06:40:48;17.00;64.00
18177;DHT22;9213;50.858;3.964;2023-05-10T06:43:15;17.10;64.00
18177;DHT22;9213;50.858;3.964;2023-05-10T06:45:42;17.10;63.80
18177;DHT22;9213;50.858;3.964;2023-05-10T06:48:08;17.10;63.70
18177;DHT22;9213;50.858;3.964;2023-05-10T06:50:35;17.10;63.60
18177;DHT22;9213;50.858;3.964;2023-05-10T06:53:04;17.10;63.60
18177;DHT22;9213;50.858;3.964;2023-05-10T06:55:31;17.10;63.60
18177;DHT22;9213;50.858;3.964;2023-05-10T06:57:57;17.10;63.50
18177;DHT22;9213;50.858;3.964;2023-05-10T07:00:24;17.10;63.50
18177;DHT22;9213;50.858;3.964;2023-05-10T07:02:51;17.10;63.50
18177;DHT22;9213;50.858;3.964;2023-05-10T07:05:18;17.10;63.50
18177;DHT22;9213;50.858;3.964;2023-05-10T07:07:45;17.20;63.60
18177;DHT22;9213;50.858;3.964;2023-05-10T07:10:13;17.20;63.50
18177;DHT22;9213;50.858;3.964;2023-05-10T07:12:40;17.20;63.40
18177;DHT22;9213;50.858;3.964;2023-05-10T07:15:08;17.20;63.30
18177;DHT22;9213;50.858;3.964;2023-05-10T07:17:35;17.20;63.30
18177;DHT22;9213;50.858;3.964;2023-05-10T07:20:03;17.30;63.30
18177;DHT22;9213;50.858;3.964;2023-05-10T07:22:30;17.30;63.20
18177;DHT22;9213;50.858;3.964;2023-05-10T07:24:57;17.30;63.90
18177;DHT22;9213;50.858;3.964;2023-05-10T07:27:25;17.30;63.00
18177;DHT22;9213;50.858;3.964;2023-05-10T07:29:52;17.40;62.90
18177;DHT22;9213;50.858;3.964;2023-05-10T07:32:20;17.30;62.70
18177;DHT22;9213;50.858;3.964;2023-05-10T07:34:47;17.30;62.80
18177;DHT22;9213;50.858;3.964;2023-05-10T07:37:13;17.30;62.80
18177;DHT22;9213;50.858;3.964;2023-05-10T07:39:40;17.30;62.90
18177;DHT22;9213;50.858;3.964;2023-05-10T07:42:07;17.30;62.80
18177;DHT22;9213;50.858;3.964;2023-05-10T07:44:35;17.30;62.80
18177;DHT22;9213;50.858;3.964;2023-05-10T07:47:02;17.30;62.80
18177;DHT22;9213;50.858;3.964;2023-05-10T07:49:29;17.30;62.80
18177;DHT22;9213;50.858;3.964;2023-05-10T07:51:56;17.30;62.90
18177;DHT22;9213;50.858;3.964;2023-05-10T07:54:23;17.40;62.90
18177;DHT22;9213;50.858;3.964;2023-05-10T07:56:50;17.40;62.80
18177;DHT22;9213;50.858;3.964;2023-05-10T07:59:18;17.40;62.60
18177;DHT22;9213;50.858;3.964;2023-05-10T08:01:46;17.40;62.40
18177;DHT22;9213;50.858;3.964;2023-05-10T08:04:13;17.40;62.40
18177;DHT22;9213;50.858;3.964;2023-05-10T08:06:40;17.40;62.30
18177;DHT22;9213;50.858;3.964;2023-05-10T08:09:08;17.40;62.10
18177;DHT22;9213;50.858;3.964;2023-05-10T08:11:36;17.40;62.30
18177;DHT22;9213;50.858;3.964;2023-05-10T08:14:03;17.40;62.20
18177;DHT22;9213;50.858;3.964;2023-05-10T08:16:30;17.40;62.30
18177;DHT22;9213;50.858;3.964;2023-05-10T08:18:59;17.40;62.30
18177;DHT22;9213;50.858;3.964;2023-05-10T08:21:26;17.40;62.20
18177;DHT22;9213;50.858;3.964;2023-05-10T08:23:52;17.30;62.20
18177;DHT22;9213;50.858;3.964;2023-05-10T08:26:19;17.30;62.30
18177;DHT22;9213;50.858;3.964;2023-05-10T08:28:47;17.30;62.40
18177;DHT22;9213;50.858;3.964;2023-05-10T08:31:14;17.30;62.60
18177;DHT22;9213;50.858;3.964;2023-05-10T08:33:41;17.30;62.70
18177;DHT22;9213;50.858;3.964;2023-05-10T08:36:09;17.40;62.70
18177;DHT22;9213;50.858;3.964;2023-05-10T08:38:37;17.40;62.50
18177;DHT22;9213;50.858;3.964;2023-05-10T08:41:05;17.40;62.30
18177;DHT22;9213;50.858;3.964;2023-05-10T08:43:32;17.50;62.40
18177;DHT22;9213;50.858;3.964;2023-05-10T08:46:01;17.50;62.30
18177;DHT22;9213;50.858;3.964;2023-05-10T08:48:29;17.50;62.20
18177;DHT22;9213;50.858;3.964;2023-05-10T08:50:58;17.50;62.20
18177;DHT22;9213;50.858;3.964;2023-05-10T08:53:28;17.60;62.10
18177;DHT22;9213;50.858;3.964;2023-05-10T08:55:57;17.60;62.10
18177;DHT22;9213;50.858;3.964;2023-05-10T08:58:25;17.60;62.00
18177;DHT22;9213;50.858;3.964;2023-05-10T09:00:52;17.50;62.90
18177;DHT22;9213;50.858;3.964;2023-05-10T09:03:20;17.50;62.30
18177;DHT22;9213;50.858;3.964;2023-05-10T09:05:47;17.50;62.60
18177;DHT22;9213;50.858;3.964;2023-05-10T09:08:14;17.50;62.60
18177;DHT22;9213;50.858;3.964;2023-05-10T09:10:44;17.60;62.60
18177;DHT22;9213;50.858;3.964;2023-05-10T09:13:13;17.60;62.80
18177;DHT22;9213;50.858;3.964;2023-05-10T09:15:41;17.60;63.00
18177;DHT22;9213;50.858;3.964;2023-05-10T09:18:08;17.60;63.10
18177;DHT22;9213;50.858;3.964;2023-05-10T09:20:34;17.60;63.00
18177;DHT22;9213;50.858;3.964;2023-05-10T09:23:01;17.70;63.00
18177;DHT22;9213;50.858;3.964;2023-05-10T09:25:28;17.70;62.70
18177;DHT22;9213;50.858;3.964;2023-05-10T09:27:57;17.70;62.50
18177;DHT22;9213;50.858;3.964;2023-05-10T09:30:25;17.70;62.30
18177;DHT22;9213;50.858;3.964;2023-05-10T09:32:53;17.80;62.20
18177;DHT22;9213;50.858;3.964;2023-05-10T09:35:21;17.70;62.30
18177;DHT22;9213;50.858;3.964;2023-05-10T09:37:51;17.80;62.00
18177;DHT22;9213;50.858;3.964;2023-05-10T09:40:20;17.80;61.90
18177;DHT22;9213;50.858;3.964;2023-05-10T09:42:52;17.80;62.00
18177;DHT22;9213;50.858;3.964;2023-05-10T09:45:21;17.80;61.90
18177;DHT22;9213;50.858;3.964;2023-05-10T09:47:48;17.80;61.80
18177;DHT22;9213;50.858;3.964;2023-05-10T09:50:15;17.80;61.80
18177;DHT22;9213;50.858;3.964;2023-05-10T09:52:50;17.80;61.90
18177;DHT22;9213;50.858;3.964;2023-05-10T09:55:18;17.90;62.50
18177;DHT22;9213;50.858;3.964;2023-05-10T09:57:46;18.00;62.40
18177;DHT22;9213;50.858;3.964;2023-05-10T10:00:17;18.10;62.50
18177;DHT22;9213;50.858;3.964;2023-05-10T10:02:48;18.40;62.10
18177;DHT22;9213;50.858;3.964;2023-05-10T10:05:20;18.60;61.40
18177;DHT22;9213;50.858;3.964;2023-05-10T10:07:47;18.90;60.60
18177;DHT22;9213;50.858;3.964;2023-05-10T10:10:16;19.10;60.00
18177;DHT22;9213;50.858;3.964;2023-05-10T10:12:43;19.30;59.10
18177;DHT22;9213;50.858;3.964;2023-05-10T10:15:10;19.40;58.40
18177;DHT22;9213;50.858;3.964;2023-05-10T10:17:38;19.50;57.80
18177;DHT22;9213;50.858;3.964;2023-05-10T10:20:08;19.50;57.50
18177;DHT22;9213;50.858;3.964;2023-05-10T10:22:35;19.60;57.30
18177;DHT22;9213;50.858;3.964;2023-05-10T10:25:04;19.60;57.10
18177;DHT22;9213;50.858;3.964;2023-05-10T10:27:39;19.70;56.70
18177;DHT22;9213;50.858;3.964;2023-05-10T10:30:17;19.90;56.50
18177;DHT22;9213;50.858;3.964;2023-05-10T10:33:06;20.00;56.50
18177;DHT22;9213;50.858;3.964;2023-05-10T10:35:38;20.10;56.30
18177;DHT22;9213;50.858;3.964;2023-05-10T10:38:07;20.30;55.80
18177;DHT22;9213;50.858;3.964;2023-05-10T10:40:35;20.50;55.20
18177;DHT22;9213;50.858;3.964;2023-05-10T10:43:23;20.50;54.80
18177;DHT22;9213;50.858;3.964;2023-05-10T10:46:11;20.80;54.60
18177;DHT22;9213;50.858;3.964;2023-05-10T10:48:39;21.00;54.20
18177;DHT22;9213;50.858;3.964;2023-05-10T10:51:08;21.00;53.20
18177;DHT22;9213;50.858;3.964;2023-05-10T10:53:37;21.00;52.80
18177;DHT22;9213;50.858;3.964;2023-05-10T10:56:08;21.00;52.10
18177;DHT22;9213;50.858;3.964;2023-05-10T10:58:37;21.00;52.20
18177;DHT22;9213;50.858;3.964;2023-05-10T11:01:14;21.00;52.40
18177;DHT22;9213;50.858;3.964;2023-05-10T11:04:17;21.00;52.70
18177;DHT22;9213;50.858;3.964;2023-05-10T11:06:45;21.00;53.10
18177;DHT22;9213;50.858;3.964;2023-05-10T11:09:12;20.90;52.50
18177;DHT22;9213;50.858;3.964;2023-05-10T11:11:50;20.90;53.00
18177;DHT22;9213;50.858;3.964;2023-05-10T11:14:21;21.00;53.40
18177;DHT22;9213;50.858;3.964;2023-05-10T11:16:48;21.00;53.10
18177;DHT22;9213;50.858;3.964;2023-05-10T11:19:16;21.10;52.80
18177;DHT22;9213;50.858;3.964;2023-05-10T11:21:49;21.20;52.30
18177;DHT22;9213;50.858;3.964;2023-05-10T11:24:17;21.30;52.30
18177;DHT22;9213;50.858;3.964;2023-05-10T11:26:44;21.40;52.10
18177;DHT22;9213;50.858;3.964;2023-05-10T11:29:12;21.50;51.60
18177;DHT22;9213;50.858;3.964;2023-05-10T11:31:43;21.60;51.20
18177;DHT22;9213;50.858;3.964;2023-05-10T11:34:12;21.70;50.90
18177;DHT22;9213;50.858;3.964;2023-05-10T11:36:52;21.70;50.60
18177;DHT22;9213;50.858;3.964;2023-05-10T11:39:19;21.80;50.30
18177;DHT22;9213;50.858;3.964;2023-05-10T11:41:48;21.80;50.00
18177;DHT22;9213;50.858;3.964;2023-05-10T11:44:15;21.80;50.30
18177;DHT22;9213;50.858;3.964;2023-05-10T11:46:42;21.80;50.30
18177;DHT22;9213;50.858;3.964;2023-05-10T11:49:09;21.80;50.00
18177;DHT22;9213;50.858;3.964;2023-05-10T11:51:36;21.90;50.50
18177;DHT22;9213;50.858;3.964;2023-05-10T11:54:07;21.90;50.10
18177;DHT22;9213;50.858;3.964;2023-05-10T11:56:35;22.00;50.10
18177;DHT22;9213;50.858;3.964;2023-05-10T11:59:03;22.00;49.40
18177;DHT22;9213;50.858;3.964;2023-05-10T12:01:31;22.10;49.10
18177;DHT22;9213;50.858;3.964;2023-05-10T12:03:59;22.10;49.40
18177;DHT22;9213;50.858;3.964;2023-05-10T12:06:27;22.10;49.30
18177;DHT22;9213;50.858;3.964;2023-05-10T12:08:55;22.10;49.20
18177;DHT22;9213;50.858;3.964;2023-05-10T12:11:27;22.10;49.00
18177;DHT22;9213;50.858;3.964;2023-05-10T12:13:54;22.10;48.90
18177;DHT22;9213;50.858;3.964;2023-05-10T12:16:23;22.00;48.90
18177;DHT22;9213;50.858;3.964;2023-05-10T12:18:50;22.00;50.00
18177;DHT22;9213;50.858;3.964;2023-05-10T12:21:19;22.00;49.20
18177;DHT22;9213;50.858;3.964;2023-05-10T12:23:48;21.90;48.80
18177;DHT22;9213;50.858;3.964;2023-05-10T12:26:15;21.90;48.80
18177;DHT22;9213;50.858;3.964;2023-05-10T12:28:43;21.90;49.10
18177;DHT22;9213;50.858;3.964;2023-05-10T12:31:10;21.90;49.00
18177;DHT22;9213;50.858;3.964;2023-05-10T12:33:38;21.90;48.80
18177;DHT22;9213;50.858;3.964;2023-05-10T12:36:08;21.90;49.00
18177;DHT22;9213;50.858;3.964;2023-05-10T12:38:35;21.90;49.40
18177;DHT22;9213;50.858;3.964;2023-05-10T12:41:05;21.90;49.00
18177;DHT22;9213;50.858;3.964;2023-05-10T12:43:33;22.00;48.90
18177;DHT22;9213;50.858;3.964;2023-05-10T12:46:06;22.00;48.90
18177;DHT22;9213;50.858;3.964;2023-05-10T12:48:34;22.00;49.00
18177;DHT22;9213;50.858;3.964;2023-05-10T12:51:01;22.00;48.80
18177;DHT22;9213;50.858;3.964;2023-05-10T12:53:28;22.00;48.80
18177;DHT22;9213;50.858;3.964;2023-05-10T12:55:55;22.00;48.70
18177;DHT22;9213;50.858;3.964;2023-05-10T12:58:22;22.00;48.60
18177;DHT22;9213;50.858;3.964;2023-05-10T13:00:50;21.90;48.80
18177;DHT22;9213;50.858;3.964;2023-05-10T13:03:19;21.90;49.10
18177;DHT22;9213;50.858;3.964;2023-05-10T13:05:46;21.80;49.10
18177;DHT22;9213;50.858;3.964;2023-05-10T13:08:13;21.80;49.70
18177;DHT22;9213;50.858;3.964;2023-05-10T13:10:39;21.80;49.80
18177;DHT22;9213;50.858;3.964;2023-05-10T13:13:06;21.80;49.60
18177;DHT22;9213;50.858;3.964;2023-05-10T13:15:34;21.90;49.70
18177;DHT22;9213;50.858;3.964;2023-05-10T13:18:01;21.90;49.20
18177;DHT22;9213;50.858;3.964;2023-05-10T13:20:29;22.00;49.30
18177;DHT22;9213;50.858;3.964;2023-05-10T13:22:56;22.00;49.20
18177;DHT22;9213;50.858;3.964;2023-05-10T13:25:23;22.00;49.00
18177;DHT22;9213;50.858;3.964;2023-05-10T13:27:50;22.00;48.90
18177;DHT22;9213;50.858;3.964;2023-05-10T13:30:17;22.10;49.60
18177;DHT22;9213;50.858;3.964;2023-05-10T13:32:44;22.20;49.10
18177;DHT22;9213;50.858;3.964;2023-05-10T13:35:11;22.30;49.00
18177;DHT22;9213;50.858;3.964;2023-05-10T13:37:39;22.40;48.90
18177;DHT22;9213;50.858;3.964;2023-05-10T13:40:07;22.40;48.40
18177;DHT22;9213;50.858;3.964;2023-05-10T13:42:34;22.50;48.40
18177;DHT22;9213;50.858;3.964;2023-05-10T13:45:01;22.60;48.20
18177;DHT22;9213;50.858;3.964;2023-05-10T13:47:28;22.60;47.60
18177;DHT22;9213;50.858;3.964;2023-05-10T13:49:55;22.70;47.50
18177;DHT22;9213;50.858;3.964;2023-05-10T13:52:22;22.60;47.10
18177;DHT22;9213;50.858;3.964;2023-05-10T13:54:51;22.60;47.10
18177;DHT22;9213;50.858;3.964;2023-05-10T13:57:20;22.40;47.20
18177;DHT22;9213;50.858;3.964;2023-05-10T13:59:47;22.40;48.00
18177;DHT22;9213;50.858;3.964;2023-05-10T14:02:14;22.30;48.20
18177;DHT22;9213;50.858;3.964;2023-05-10T14:04:41;22.20;48.20
18177;DHT22;9213;50.858;3.964;2023-05-10T14:07:08;22.00;48.90
18177;DHT22;9213;50.858;3.964;2023-05-10T14:09:35;21.80;49.60
18177;DHT22;9213;50.858;3.964;2023-05-10T14:12:03;21.40;50.40
18177;DHT22;9213;50.858;3.964;2023-05-10T14:14:30;21.10;51.50
18177;DHT22;9213;50.858;3.964;2023-05-10T14:16:57;20.70;51.90
18177;DHT22;9213;50.858;3.964;2023-05-10T14:19:24;20.40;52.60
18177;DHT22;9213;50.858;3.964;2023-05-10T14:21:52;20.10;53.70
18177;DHT22;9213;50.858;3.964;2023-05-10T14:24:19;19.90;54.50
18177;DHT22;9213;50.858;3.964;2023-05-10T14:26:46;19.70;55.20
18177;DHT22;9213;50.858;3.964;2023-05-10T14:29:14;19.60;55.70
18177;DHT22;9213;50.858;3.964;2023-05-10T14:31:41;19.50;56.00
18177;DHT22;9213;50.858;3.964;2023-05-10T14:34:08;19.50;56.30
18177;DHT22;9213;50.858;3.964;2023-05-10T14:36:35;19.40;56.10
18177;DHT22;9213;50.858;3.964;2023-05-10T14:39:02;19.40;56.20
18177;DHT22;9213;50.858;3.964;2023-05-10T14:41:29;19.40;57.20
18177;DHT22;9213;50.858;3.964;2023-05-10T14:43:56;19.30;56.70
18177;DHT22;9213;50.858;3.964;2023-05-10T14:46:24;19.30;57.00
18177;DHT22;9213;50.858;3.964;2023-05-10T14:48:51;19.30;57.20
18177;DHT22;9213;50.858;3.964;2023-05-10T14:51:18;19.30;57.10
18177;DHT22;9213;50.858;3.964;2023-05-10T14:53:47;19.20;57.00
18177;DHT22;9213;50.858;3.964;2023-05-10T14:56:14;19.20;57.30
18177;DHT22;9213;50.858;3.964;2023-05-10T14:58:41;19.10;57.70
18177;DHT22;9213;50.858;3.964;2023-05-10T15:01:08;19.10;57.90
18177;DHT22;9213;50.858;3.964;2023-05-10T15:03:36;19.00;57.90
18177;DHT22;9213;50.858;3.964;2023-05-10T15:06:04;19.00;58.10
18177;DHT22;9213;50.858;3.964;2023-05-10T15:08:31;19.00;58.20
18177;DHT22;9213;50.858;3.964;2023-05-10T15:10:58;19.00;58.10
18177;DHT22;9213;50.858;3.964;2023-05-10T15:13:25;19.00;58.20
18177;DHT22;9213;50.858;3.964;2023-05-10T15:15:52;19.00;58.80
18177;DHT22;9213;50.858;3.964;2023-05-10T15:18:19;19.00;58.30
18177;DHT22;9213;50.858;3.964;2023-05-10T15:20:47;19.00;58.10
18177;DHT22;9213;50.858;3.964;2023-05-10T15:23:14;19.00;58.10
18177;DHT22;9213;50.858;3.964;2023-05-10T15:25:41;19.00;58.10
18177;DHT22;9213;50.858;3.964;2023-05-10T15:28:08;19.10;58.20
18177;DHT22;9213;50.858;3.964;2023-05-10T15:30:35;19.10;58.30
18177;DHT22;9213;50.858;3.964;2023-05-10T15:33:01;19.10;58.50
18177;DHT22;9213;50.858;3.964;2023-05-10T15:35:28;19.10;58.60
18177;DHT22;9213;50.858;3.964;2023-05-10T15:37:57;19.20;58.70
18177;DHT22;9213;50.858;3.964;2023-05-10T15:40:23;19.20;58.70
18177;DHT22;9213;50.858;3.964;2023-05-10T15:42:50;19.20;58.60
18177;DHT22;9213;50.858;3.964;2023-05-10T15:45:18;19.30;58.60
18177;DHT22;9213;50.858;3.964;2023-05-10T15:47:45;19.30;58.60
18177;DHT22;9213;50.858;3.964;2023-05-10T15:50:12;19.40;58.70
18177;DHT22;9213;50.858;3.964;2023-05-10T15:52:39;19.40;59.30
18177;DHT22;9213;50.858;3.964;2023-05-10T15:55:09;19.50;58.70
18177;DHT22;9213;50.858;3.964;2023-05-10T15:57:37;19.60;58.70
18177;DHT22;9213;50.858;3.964;2023-05-10T16:00:06;19.60;58.70
18177;DHT22;9213;50.858;3.964;2023-05-10T16:02:33;19.70;59.40
18177;DHT22;9213;50.858;3.964;2023-05-10T16:05:00;19.70;58.70
18177;DHT22;9213;50.858;3.964;2023-05-10T16:07:27;19.80;58.50